Terminal Aerodrome Forecast
Issued by NWS Mt. Holly, NJ

Home | Current Version | Previous Version | Text Only | Print | Product List | Glossary On
Versions: 1 2 3 4 5 6 7 8 9 10 11 12 13 14 15 16 17 18 19 20 21 22 23 24 25 26
558
FTUS41 KPHI 281120
TAFPHL
TAF
KPHL 281120Z 2812/2918 30005KT P6SM SKC
     FM281600 29009KT P6SM FEW070
     FM282100 25009KT P6SM FEW250
     FM290300 21005KT P6SM FEW250
     FM291300 21010KT P6SM SCT150=

USA.gov is the U.S. government's official web portal to all federal, state and local government web resources and services.